Time;durP1;ratioP1;P1;durP2;ratioP2;P2;SDS_P1;SDS_P2;PMS_P1;PMS_P2;Temp;Humidity;BMP_temperature;BMP_pressure;BME280_temperature;BME280_humidity;BME280_pressure;Samples;Min_cycle;Max_cycle;Signal;HPM_P1;HPM_P2
2021/11/21 00:00:37;;;;;;;27.35;16.15;;;;;;;6.06;71.53;100455.31;5068676;28;20540;-21
2021/11/21 00:03:03;;;;;;;23.50;15.15;;;;;;;6.38;70.70;100475.38;5068444;28;20036;-22
2021/11/21 00:05:28;;;;;;;24.42;16.85;;;;;;;6.46;69.90;100466.50;5050766;28;20029;-22
2021/11/21 00:07:54;;;;;;;24.45;16.23;;;;;;;5.94;71.07;100471.59;5068538;28;20581;-23
2021/11/21 00:10:19;;;;;;;26.27;15.93;;;;;;;6.29;71.05;100479.91;5050595;28;20826;-22
2021/11/21 00:12:45;;;;;;;27.13;17.08;;;;;;;6.15;71.22;100459.50;5050656;28;20082;-22
2021/11/21 00:15:10;;;;;;;25.48;15.75;;;;;;;5.88;72.19;100459.06;5068659;28;20060;-22
2021/11/21 00:17:36;;;;;;;29.33;20.25;;;;;;;6.16;72.13;100475.22;5068404;28;20025;-21
2021/11/21 00:20:02;;;;;;;28.92;18.02;;;;;;;5.96;71.96;100455.56;5050494;28;20032;-21
2021/11/21 00:22:29;;;;;;;30.70;19.45;;;;;;;6.07;71.76;100462.25;5067947;28;20599;-22
2021/11/21 00:24:54;;;;;;;30.25;19.35;;;;;;;6.36;71.48;100456.19;5068411;28;20028;-22
2021/11/21 00:27:21;;;;;;;28.90;18.60;;;;;;;6.63;70.55;100462.66;5050332;28;20039;-21
2021/11/21 00:29:46;;;;;;;32.70;19.05;;;;;;;6.32;70.98;100461.00;5068315;28;20035;-22
2021/11/21 00:32:12;;;;;;;25.67;17.55;;;;;;;6.07;71.57;100456.94;5067941;28;20435;-21
2021/11/21 00:34:37;;;;;;;27.00;18.27;;;;;;;6.03;71.99;100462.63;5050310;28;20559;-22
2021/11/21 00:37:03;;;;;;;29.40;17.83;;;;;;;6.13;71.76;100464.16;5068112;28;20036;-22
2021/11/21 00:39:29;;;;;;;36.95;23.90;;;;;;;5.95;71.11;100453.94;5068337;28;20119;-21
2021/11/21 00:41:55;;;;;;;37.08;21.63;;;;;;;5.87;72.34;100465.38;5068568;28;20043;-23
2021/11/21 00:44:21;;;;;;;28.77;19.17;;;;;;;5.91;72.37;100453.41;5067897;28;20032;-22
2021/11/21 00:46:47;;;;;;;28.73;17.88;;;;;;;5.79;72.02;100457.50;5050007;28;20037;-22
2021/11/21 00:49:15;;;;;;;29.50;16.98;;;;;;;6.07;72.31;100449.00;5068188;28;20542;-22
2021/11/21 00:51:41;;;;;;;25.92;16.77;;;;;;;6.20;71.21;100462.47;5049886;28;20048;-22
2021/11/21 00:54:23;;;;;;;26.35;16.55;;;;;;;6.10;71.68;100460.06;5068102;28;20056;-22
2021/11/21 00:56:49;;;;;;;27.08;16.98;;;;;;;5.97;71.88;100463.31;5068797;28;20043;-22
2021/11/21 00:59:19;;;;;;;31.48;18.73;;;;;;;6.41;70.37;100456.44;5072011;28;20036;-23
2021/11/21 01:01:48;;;;;;;28.73;17.98;;;;;;;6.38;70.73;100444.41;5072283;28;20068;-22
2021/11/21 01:04:14;;;;;;;26.42;16.27;;;;;;;6.06;70.76;100450.00;5054853;28;20020;-23
2021/11/21 01:06:39;;;;;;;26.83;16.92;;;;;;;5.68;72.16;100450.81;5054318;28;20028;-21
2021/11/21 01:09:05;;;;;;;30.00;18.52;;;;;;;5.45;73.25;100450.78;5071896;28;20028;-22
2021/11/21 01:11:30;;;;;;;32.08;20.90;;;;;;;4.88;74.68;100445.81;5072364;28;20037;-22
2021/11/21 01:13:56;;;;;;;28.63;18.58;;;;;;;4.60;74.56;100438.34;5071496;28;20057;-22
2021/11/21 01:16:22;;;;;;;32.08;18.83;;;;;;;5.15;72.85;100450.66;5053597;28;20040;-22
2021/11/21 01:18:47;;;;;;;32.03;20.42;;;;;;;5.32;72.62;100439.97;5053950;28;20028;-22
2021/11/21 01:21:13;;;;;;;32.45;19.80;;;;;;;5.66;71.43;100442.22;5053755;28;20032;-23
2021/11/21 01:23:38;;;;;;;30.08;19.48;;;;;;;5.73;71.07;100439.69;5071867;28;20103;-22
2021/11/21 01:26:04;;;;;;;30.80;18.73;;;;;;;6.08;70.25;100430.28;5071542;28;20036;-22
2021/11/21 01:28:29;;;;;;;27.33;18.73;;;;;;;5.80;70.30;100441.44;5071160;28;20028;-23
2021/11/21 01:30:55;;;;;;;26.35;15.95;;;;;;;5.81;72.12;100442.25;5072051;28;20385;-22
2021/11/21 01:33:21;;;;;;;28.95;16.92;;;;;;;6.31;69.81;100438.16;5053394;28;20029;-22
2021/11/21 01:35:47;;;;;;;27.83;17.58;;;;;;;6.44;69.16;100422.47;5053748;28;20043;-21
2021/11/21 01:38:13;;;;;;;27.00;17.70;;;;;;;6.57;69.63;100434.25;5071092;28;20032;-22
2021/11/21 01:40:38;;;;;;;26.80;17.23;;;;;;;6.10;71.46;100420.34;5071622;28;20044;-23
2021/11/21 01:43:04;;;;;;;27.60;17.13;;;;;;;6.38;69.96;100441.75;5071495;28;20029;-22
2021/11/21 01:45:31;;;;;;;24.45;16.65;;;;;;;5.81;71.25;100431.69;5053357;28;20028;-22
2021/11/21 01:47:57;;;;;;;24.48;15.05;;;;;;;5.73;72.23;100444.97;5071035;28;20127;-22
2021/11/21 01:50:26;;;;;;;24.60;16.67;;;;;;;5.17;73.38;100429.31;5071170;28;20029;-22
2021/11/21 01:52:52;;;;;;;28.58;18.35;;;;;;;5.36;72.29;100449.22;5071441;28;20781;-21
2021/11/21 01:55:17;;;;;;;23.67;15.98;;;;;;;5.79;71.63;100433.69;5071072;28;20089;-22
2021/11/21 01:57:43;;;;;;;25.55;16.55;;;;;;;6.19;69.69;100450.22;5071200;28;20059;-22
2021/11/21 02:00:09;;;;;;;24.38;16.10;;;;;;;6.05;71.28;100449.19;5052830;28;20032;-22
2021/11/21 02:02:35;;;;;;;22.02;14.82;;;;;;;5.79;72.44;100449.56;5070843;28;20032;-21
2021/11/21 02:05:01;;;;;;;25.42;15.48;;;;;;;5.97;71.20;100449.28;5071065;28;20032;-22
2021/11/21 02:07:29;;;;;;;21.98;14.52;;;;;;;5.87;70.58;100451.31;5070969;28;20033;-22
2021/11/21 02:09:54;;;;;;;23.55;15.60;;;;;;;5.95;71.01;100444.16;5070676;28;20032;-21
2021/11/21 02:12:20;;;;;;;29.27;15.07;;;;;;;6.03;71.17;100441.44;5035935;28;20033;-22
2021/11/21 02:14:45;;;;;;;25.58;15.52;;;;;;;6.03;70.56;100433.50;5070539;28;20438;-22
2021/11/21 02:17:10;;;;;;;20.40;14.40;;;;;;;6.03;70.24;100436.13;5070468;28;20032;-22
2021/11/21 02:19:36;;;;;;;26.42;16.25;;;;;;;5.82;71.11;100434.16;5070453;28;20033;-23
2021/11/21 02:22:03;;;;;;;22.30;14.65;;;;;;;5.75;71.14;100432.38;5052742;28;20397;-21
2021/11/21 02:24:29;;;;;;;24.25;14.70;;;;;;;5.82;70.71;100417.44;5070193;28;20055;-22
2021/11/21 02:26:55;;;;;;;24.10;14.65;;;;;;;5.26;72.57;100417.69;5070688;28;20405;-21
2021/11/21 02:29:20;;;;;;;19.35;13.38;;;;;;;5.01;73.38;100398.53;5070593;28;20504;-22
2021/11/21 02:31:46;;;;;;;21.85;14.50;;;;;;;5.41;73.13;100431.81;5070358;28;20036;-22
2021/11/21 02:34:11;;;;;;;21.65;14.63;;;;;;;5.69;71.09;100423.34;5070512;28;20450;-23
2021/11/21 02:36:41;;;;;;;23.77;15.02;;;;;;;5.86;70.77;100412.59;5070627;28;20802;-22
2021/11/21 02:39:06;;;;;;;25.30;14.45;;;;;;;5.39;71.11;100372.16;5053166;28;20032;-22
2021/11/21 02:41:32;;;;;;;20.85;14.18;;;;;;;5.83;70.03;100414.59;5070743;28;20421;-21
2021/11/21 02:43:57;;;;;;;24.35;15.07;;;;;;;6.08;68.52;100418.88;5070373;28;20086;-22
2021/11/21 02:46:23;;;;;;;21.55;14.60;;;;;;;5.90;69.47;100404.13;5069844;28;20078;-22
2021/11/21 02:48:48;;;;;;;22.13;14.52;;;;;;;5.81;70.06;100421.09;5070148;28;20032;-22
2021/11/21 02:51:14;;;;;;;22.40;13.50;;;;;;;5.56;70.62;100407.25;5069975;28;20410;-21
2021/11/21 02:53:41;;;;;;;21.85;14.32;;;;;;;5.50;71.59;100403.47;5070231;28;20059;-22
2021/11/21 02:56:11;;;;;;;18.40;12.73;;;;;;;5.51;70.46;100378.66;5052451;28;20028;-22
2021/11/21 02:58:37;;;;;;;22.30;14.57;;;;;;;5.63;70.64;100402.88;5069925;28;20028;-22
2021/11/21 03:01:05;;;;;;;22.08;13.88;;;;;;;5.63;70.19;100393.09;5069895;28;20040;-22
2021/11/21 03:03:31;;;;;;;23.40;14.27;;;;;;;5.54;70.40;100410.06;5070044;28;20112;-22
2021/11/21 03:05:58;;;;;;;21.67;14.70;;;;;;;5.15;72.09;100399.56;5069799;28;20028;-22
2021/11/21 03:08:23;;;;;;;21.25;13.57;;;;;;;5.16;71.89;100412.63;5069579;28;20062;-22
2021/11/21 03:10:49;;;;;;;23.38;14.20;;;;;;;5.45;70.96;100424.34;5069608;28;20032;-22
2021/11/21 03:13:14;;;;;;;25.10;16.17;;;;;;;4.99;70.84;100416.38;5051786;28;20493;-21
2021/11/21 03:15:40;;;;;;;24.77;15.20;;;;;;;5.22;69.49;100417.22;5069414;28;20052;-22
2021/11/21 03:18:06;;;;;;;21.05;13.77;;;;;;;4.79;69.57;100411.50;5069982;28;20032;-22
2021/11/21 03:20:34;;;;;;;23.08;13.43;;;;;;;5.10;69.35;100413.31;5068813;28;20028;-22
2021/11/21 03:22:59;;;;;;;;;;;;;;;4.36;70.95;100418.94;5052050;28;20390;-21
2021/11/21 03:25:25;;;;;;;20.98;13.68;;;;;;;3.70;71.78;100389.22;5069310;28;19913;-22
2021/11/21 03:27:51;;;;;;;23.92;13.43;;;;;;;4.21;71.02;100394.25;5051441;28;20508;-22
2021/11/21 03:30:18;;;;;;;20.42;13.20;;;;;;;4.22;71.46;100382.69;5069180;28;20029;-21
2021/11/21 03:32:44;;;;;;;20.17;13.27;;;;;;;4.72;71.02;100401.78;5051516;28;20028;-22
2021/11/21 03:35:09;;;;;;;25.55;15.50;;;;;;;4.68;70.89;100393.41;5051449;28;20036;-22
2021/11/21 03:37:35;;;;;;;20.98;13.95;;;;;;;5.10;68.77;100417.81;5069216;28;20094;-23
2021/11/21 03:40:01;;;;;;;22.90;14.48;;;;;;;5.14;68.57;100409.34;5051193;28;20119;-22
2021/11/21 03:42:26;;;;;;;24.55;15.13;;;;;;;5.31;69.22;100415.38;5050985;28;20040;-23
2021/11/21 03:44:52;;;;;;;21.90;13.73;;;;;;;4.78;70.00;100412.53;5034680;28;20035;-21
2021/11/21 03:47:17;;;;;;;21.90;13.52;;;;;;;4.64;71.02;100407.97;5069050;28;20420;-22
2021/11/21 03:49:43;;;;;;;23.23;14.43;;;;;;;4.76;71.20;100413.66;5068870;28;20388;-22
2021/11/21 03:52:09;;;;;;;25.42;16.63;;;;;;;4.99;70.10;100403.16;5068578;28;20040;-22
2021/11/21 03:54:34;;;;;;;29.95;17.48;;;;;;;5.07;69.55;100416.34;5069052;28;20036;-21
2021/11/21 03:57:00;;;;;;;33.15;18.20;;;;;;;4.82;69.43;100413.81;5068676;28;20044;-22
2021/11/21 03:59:25;;;;;;;24.20;14.52;;;;;;;4.16;72.40;100417.69;5068805;28;20020;-22
2021/11/21 04:01:51;;;;;;;23.95;14.45;;;;;;;4.01;73.12;100413.09;5068639;28;20036;-22
2021/11/21 04:04:18;;;;;;;32.28;18.02;;;;;;;4.18;73.07;100405.94;5068899;28;20028;-22
2021/11/21 04:06:43;;;;;;;34.50;16.98;;;;;;;3.92;72.65;100402.69;5068364;28;20060;-22
2021/11/21 04:09:09;;;;;;;23.23;13.55;;;;;;;3.69;73.10;100403.38;5068778;28;20086;-21
2021/11/21 04:11:34;;;;;;;20.98;13.68;;;;;;;4.06;72.36;100414.41;5068607;28;20043;-21
2021/11/21 04:14:00;;;;;;;24.48;14.45;;;;;;;3.95;72.43;100423.50;5068336;28;20056;-22
2021/11/21 04:16:26;;;;;;;20.80;13.57;;;;;;;3.09;74.34;100412.41;5068361;28;20472;-22
2021/11/21 04:18:52;;;;;;;26.52;14.10;;;;;;;3.37;74.75;100414.72;5068434;28;20031;-22
2021/11/21 04:21:17;;;;;;;26.13;14.95;;;;;;;3.19;75.11;100423.63;5068991;28;20044;-23
2021/11/21 04:23:42;;;;;;;25.13;14.98;;;;;;;2.96;75.24;100427.84;5068744;28;20469;-22
2021/11/21 04:26:08;;;;;;;28.00;15.73;;;;;;;3.04;75.18;100425.22;5050235;28;20040;-22
2021/11/21 04:28:34;;;;;;;27.00;15.00;;;;;;;3.54;72.97;100420.88;5068679;28;20036;-22
2021/11/21 04:30:59;;;;;;;27.88;16.08;;;;;;;3.40;72.98;100425.78;5049980;28;20028;-22
2021/11/21 04:33:25;;;;;;;29.90;16.35;;;;;;;3.12;73.97;100427.88;5067677;28;20034;-21
2021/11/21 04:35:50;;;;;;;33.97;18.25;;;;;;;3.24;73.96;100440.75;5068365;28;20117;-22
2021/11/21 04:38:16;;;;;;;35.58;19.95;;;;;;;3.58;71.71;100387.91;5067994;28;20024;-22
2021/11/21 04:40:42;;;;;;;36.83;20.38;;;;;;;3.64;73.37;100434.72;5050456;28;20033;-22
2021/11/21 04:43:08;;;;;;;31.95;18.95;;;;;;;3.16;74.85;100433.66;5068044;28;20073;-22
2021/11/21 04:45:34;;;;;;;31.73;18.25;;;;;;;3.62;73.50;100408.50;5068356;28;20454;-22
2021/11/21 04:47:59;;;;;;;39.13;25.05;;;;;;;3.65;73.76;100433.72;5050052;28;20025;-21
2021/11/21 04:50:25;;;;;;;52.85;31.23;;;;;;;3.84;72.55;100416.72;5067788;28;20028;-22
2021/11/21 04:52:50;;;;;;;42.88;26.98;;;;;;;3.93;72.15;100428.09;5050180;28;20028;-22
2021/11/21 04:55:16;;;;;;;88.80;45.90;;;;;;;4.04;72.17;100422.47;5068171;28;20063;-22
2021/11/21 04:57:42;;;;;;;150.90;70.35;;;;;;;4.09;71.61;100419.34;5050257;28;20041;-22
2021/11/21 05:00:15;;;;;;;110.25;53.35;;;;;;;3.62;72.72;100403.22;5068105;28;20161;-22
2021/11/21 05:02:45;;;;;;;57.40;32.25;;;;;;;3.39;74.27;100429.44;5067932;28;20423;-21
2021/11/21 05:05:10;;;;;;;40.13;23.15;;;;;;;3.57;72.89;100410.78;5067774;28;20381;-22
2021/11/21 05:07:36;;;;;;;38.53;21.70;;;;;;;4.08;72.27;100423.78;5067892;28;20507;-22
2021/11/21 05:10:06;;;;;;;36.55;22.70;;;;;;;4.14;70.74;100390.63;5067622;28;20028;-22
2021/11/21 05:12:31;;;;;;;41.40;23.38;;;;;;;4.43;70.27;100419.94;5067891;28;20063;-22
2021/11/21 05:14:59;;;;;;;82.38;45.53;;;;;;;4.02;71.36;100412.09;5067900;28;20448;-22
2021/11/21 05:17:24;;;;;;;83.93;44.85;;;;;;;3.93;71.63;100421.00;5067698;28;20114;-22
2021/11/21 05:19:49;;;;;;;69.85;35.22;;;;;;;3.85;72.15;100423.66;5067715;28;20058;-22
2021/11/21 05:22:15;;;;;;;54.72;29.45;;;;;;;3.92;71.48;100418.53;5067723;28;20413;-22
2021/11/21 05:24:40;;;;;;;49.83;27.63;;;;;;;3.87;72.22;100411.13;5049704;28;20064;-22
2021/11/21 05:27:06;;;;;;;45.53;26.88;;;;;;;3.93;72.64;100421.00;5049908;28;20028;-23
2021/11/21 05:29:31;;;;;;;45.28;27.45;;;;;;;3.86;72.64;100422.66;5049937;28;20086;-21
2021/11/21 05:31:57;;;;;;;57.08;29.55;;;;;;;3.85;72.75;100420.19;5067789;28;20153;-22
2021/11/21 05:34:22;;;;;;;51.75;28.48;;;;;;;3.76;73.03;100424.63;5067629;28;20033;-22
2021/11/21 05:36:48;;;;;;;47.45;25.80;;;;;;;3.44;74.04;100426.28;5067547;28;20401;-22
2021/11/21 05:39:13;;;;;;;76.70;39.55;;;;;;;3.00;75.67;100405.44;5067470;28;20029;-22
2021/11/21 05:41:39;;;;;;;65.50;34.65;;;;;;;3.16;76.02;100428.38;5067941;28;20035;-22
2021/11/21 05:44:05;;;;;;;47.85;26.85;;;;;;;3.10;76.14;100429.84;5070108;28;20033;-21
2021/11/21 05:46:31;;;;;;;57.50;30.27;;;;;;;3.01;76.14;100430.81;5052920;28;20067;-22
2021/11/21 05:48:56;;;;;;;55.05;29.65;;;;;;;3.74;74.79;100432.75;5053178;28;20035;-22
2021/11/21 05:51:22;;;;;;;55.13;30.48;;;;;;;3.20;75.34;100425.25;5071693;28;20090;-22
2021/11/21 05:53:47;;;;;;;54.00;29.40;;;;;;;3.51;75.27;100432.53;5071056;28;20397;-22
2021/11/21 05:56:12;;;;;;;46.83;26.48;;;;;;;3.58;74.50;100443.28;5070948;28;20039;-22
2021/11/21 05:58:38;;;;;;;50.70;28.75;;;;;;;3.28;76.49;100439.44;5071107;28;20476;-22
2021/11/21 06:01:05;;;;;;;47.15;26.88;;;;;;;3.47;76.45;100441.78;5071001;28;20082;-22
2021/11/21 06:03:30;;;;;;;51.00;28.60;;;;;;;3.53;76.78;100425.28;5070732;28;20401;-23
2021/11/21 06:05:56;;;;;;;47.42;30.25;;;;;;;3.83;76.49;100421.19;5053230;28;20035;-22
2021/11/21 06:08:21;;;;;;;57.22;36.20;;;;;;;3.93;76.18;100431.56;5070775;28;20137;-23
2021/11/21 06:10:47;;;;;;;62.45;36.85;;;;;;;3.86;77.74;100435.84;5070753;28;20039;-22
2021/11/21 06:13:13;;;;;;;52.75;31.75;;;;;;;4.21;76.18;100434.66;5070883;28;20386;-22
2021/11/21 06:15:38;;;;;;;46.33;27.75;;;;;;;4.25;76.16;100435.16;5070518;28;20102;-21
2021/11/21 06:18:04;;;;;;;57.13;30.63;;;;;;;4.10;77.23;100427.09;5070818;28;20027;-22
2021/11/21 06:20:29;;;;;;;205.95;105.07;;;;;;;4.56;76.20;100439.69;5070660;28;20051;-22
2021/11/21 06:22:55;;;;;;;52.53;32.25;;;;;;;5.06;74.37;100433.19;5070568;28;20028;-22
2021/11/21 06:25:20;;;;;;;60.75;35.72;;;;;;;5.22;72.50;100432.25;5070728;28;20407;-22
2021/11/21 06:27:46;;;;;;;52.58;28.55;;;;;;;4.85;73.77;100422.41;5070290;28;20056;-22
2021/11/21 06:30:11;;;;;;;38.47;26.10;;;;;;;4.36;76.43;100421.59;5070181;28;20045;-22
2021/11/21 06:32:37;;;;;;;32.78;22.02;;;;;;;4.53;76.63;100435.56;5052541;28;20396;-22
2021/11/21 06:35:03;;;;;;;38.47;27.02;;;;;;;4.39;76.90;100437.09;5070418;28;20070;-22
2021/11/21 06:37:28;;;;;;;55.45;34.28;;;;;;;4.49;77.12;100436.06;5070663;28;20027;-22
2021/11/21 06:39:54;;;;;;;37.38;24.75;;;;;;;5.12;75.90;100439.59;5070749;28;20032;-22
2021/11/21 06:42:19;;;;;;;43.10;23.83;;;;;;;4.93;75.82;100440.84;5070415;28;20033;-22
2021/11/21 06:44:45;;;;;;;31.35;21.50;;;;;;;5.03;76.11;100433.53;5070529;28;20032;-21
2021/11/21 06:47:12;;;;;;;33.45;22.83;;;;;;;4.87;77.28;100444.19;5070420;28;20041;-22
2021/11/21 06:49:38;;;;;;;39.45;23.63;;;;;;;5.36;75.31;100438.63;5070005;28;20040;-22
2021/11/21 06:52:04;;;;;;;35.10;22.45;;;;;;;5.46;74.62;100439.22;5069893;28;20031;-22
2021/11/21 06:54:29;;;;;;;36.40;22.45;;;;;;;5.58;74.34;100442.28;5069025;28;20040;-22
2021/11/21 06:56:55;;;;;;;38.40;25.35;;;;;;;5.74;74.13;100436.03;5069965;28;20029;-22
2021/11/21 06:59:20;;;;;;;46.13;30.40;;;;;;;5.78;73.42;100424.94;5069880;28;20036;-22
2021/11/21 07:01:46;;;;;;;42.55;26.20;;;;;;;6.02;73.37;100431.00;5070105;28;20030;-22
2021/11/21 07:04:11;;;;;;;46.63;27.52;;;;;;;6.34;72.59;100421.09;5069761;28;20671;-22
2021/11/21 07:06:39;;;;;;;183.45;133.77;;;;;;;6.74;70.64;100417.16;5069673;28;20033;-22
2021/11/21 07:09:09;;;;;;;82.47;64.93;;;;;;;7.27;69.08;100424.88;5052005;28;20031;-22
2021/11/21 07:11:35;;;;;;;41.40;26.27;;;;;;;7.35;68.88;100427.41;5069936;28;20496;-22
2021/11/21 07:14:00;;;;;;;45.60;25.20;;;;;;;7.26;71.13;100420.59;5051560;28;20135;-22
2021/11/21 07:16:26;;;;;;;34.92;22.38;;;;;;;7.20;70.96;100422.16;5069256;28;20047;-22
2021/11/21 07:18:52;;;;;;;40.95;23.67;;;;;;;7.11;71.75;100418.00;5051624;28;20397;-22
2021/11/21 07:21:17;;;;;;;50.15;28.00;;;;;;;7.07;71.19;100419.38;5034895;28;20539;-22
2021/11/21 07:23:43;;;;;;;50.92;29.40;;;;;;;7.30;71.44;100421.03;5069454;28;20506;-22
2021/11/21 07:26:08;;;;;;;55.88;32.08;;;;;;;7.47;71.67;100417.13;5051435;28;20032;-22
2021/11/21 07:28:34;;;;;;;64.97;33.45;;;;;;;7.53;70.84;100421.66;5069308;28;20408;-22
2021/11/21 07:30:59;;;;;;;63.70;33.72;;;;;;;7.60;71.66;100416.41;5069329;28;20803;-22
2021/11/21 07:33:25;;;;;;;46.33;29.33;;;;;;;7.70;72.30;100418.75;5069433;28;20025;-21
2021/11/21 07:35:52;;;;;;;48.15;30.35;;;;;;;7.52;72.86;100422.69;5069100;28;20488;-22
2021/11/21 07:38:19;;;;;;;49.10;27.93;;;;;;;7.72;72.33;100419.38;5051881;28;20105;-22
2021/11/21 07:40:45;;;;;;;42.45;27.80;;;;;;;7.81;72.25;100402.31;5051140;28;20089;-21
2021/11/21 07:43:10;;;;;;;45.58;26.20;;;;;;;7.73;72.81;100426.34;5069265;28;20037;-22
2021/11/21 07:45:36;;;;;;;47.67;28.73;;;;;;;7.85;72.63;100398.25;5068873;28;20102;-22
2021/11/21 07:48:01;;;;;;;48.30;28.60;;;;;;;8.17;70.54;100399.50;5051198;28;20374;-22
2021/11/21 07:50:26;;;;;;;46.80;28.75;;;;;;;8.78;69.52;100409.44;5068761;28;20184;-21
2021/11/21 07:52:52;;;;;;;43.28;26.73;;;;;;;8.45;70.13;100412.75;5051134;28;20037;-22
2021/11/21 07:55:17;;;;;;;40.33;25.13;;;;;;;8.88;67.93;100402.94;5068891;28;20413;-21
2021/11/21 07:57:43;;;;;;;45.15;26.48;;;;;;;9.43;66.55;100417.00;5068552;28;20060;-22
2021/11/21 08:00:13;;;;;;;41.47;26.33;;;;;;;9.21;67.70;100397.72;5050724;28;20123;-21
2021/11/21 08:02:38;;;;;;;55.17;26.38;;;;;;;9.48;66.69;100397.75;5068877;28;20032;-22
2021/11/21 08:05:04;;;;;;;39.30;25.00;;;;;;;9.59;65.80;100403.28;5068602;28;20109;-22
2021/11/21 08:07:30;;;;;;;36.20;23.77;;;;;;;9.55;66.14;100398.59;5050657;28;20047;-22
2021/11/21 08:09:55;;;;;;;36.88;24.77;;;;;;;9.50;65.72;100391.22;5067174;28;20416;-22
2021/11/21 08:12:21;;;;;;;39.08;23.55;;;;;;;10.00;66.91;100399.59;5068477;28;20028;-22
2021/11/21 08:14:47;;;;;;;33.63;21.67;;;;;;;10.20;65.25;100396.09;5050566;28;20060;-21
2021/11/21 08:17:12;;;;;;;34.88;21.20;;;;;;;10.38;64.88;100392.78;5068500;28;20094;-22
2021/11/21 08:19:38;;;;;;;32.83;21.27;;;;;;;9.88;65.14;100382.59;5068673;28;20086;-23
2021/11/21 08:22:04;;;;;;;33.95;20.73;;;;;;;10.33;65.06;100392.59;5068891;28;20090;-22
2021/11/21 08:24:29;;;;;;;31.73;22.13;;;;;;;10.59;64.83;100394.38;5064811;28;20045;-22
2021/11/21 08:26:55;;;;;;;29.17;20.02;;;;;;;10.37;63.15;100391.97;5057639;28;20453;-22
2021/11/21 08:29:20;;;;;;;28.80;18.88;;;;;;;10.62;62.47;100394.78;5057431;28;20531;-22
2021/11/21 08:31:48;;;;;;;29.38;18.05;;;;;;;10.35;64.04;100388.69;5055885;28;20031;-22
2021/11/21 08:34:13;;;;;;;33.38;21.27;;;;;;;10.80;63.29;100390.59;5061643;28;20041;-22
2021/11/21 08:36:39;;;;;;;30.88;20.15;;;;;;;10.82;62.03;100376.00;5043279;28;20036;-22
2021/11/21 08:39:04;;;;;;;25.35;17.30;;;;;;;11.07;61.77;100380.59;5037901;28;20037;-23
2021/11/21 08:41:30;;;;;;;26.02;18.08;;;;;;;11.19;61.87;100373.53;5056944;28;20058;-22
2021/11/21 08:43:56;;;;;;;25.10;16.45;;;;;;;11.13;60.96;100374.38;5026097;28;20447;-21
2021/11/21 08:46:22;;;;;;;21.73;15.88;;;;;;;11.04;61.48;100344.47;5049454;28;20466;-21
2021/11/21 08:48:48;;;;;;;26.65;16.50;;;;;;;11.30;61.19;100371.19;5049804;28;20480;-22
2021/11/21 08:51:13;;;;;;;23.73;16.65;;;;;;;11.74;60.19;100359.56;5068039;28;20028;-23
2021/11/21 08:53:39;;;;;;;23.27;16.83;;;;;;;12.22;57.91;100358.13;5047101;28;20047;-21
2021/11/21 08:56:05;;;;;;;20.00;13.70;;;;;;;12.13;57.33;100354.88;5067647;28;20021;-22
2021/11/21 08:58:30;;;;;;;19.95;12.95;;;;;;;11.92;57.82;100348.13;5058107;28;20037;-23
2021/11/21 09:00:56;;;;;;;18.40;13.32;;;;;;;12.32;57.21;100350.38;5049932;28;20064;-21
2021/11/21 09:03:21;;;;;;;18.08;13.70;;;;;;;12.22;57.03;100328.69;5012413;28;20041;-22
2021/11/21 09:05:47;;;;;;;17.75;14.38;;;;;;;12.62;56.32;100339.72;5047838;28;20025;-21
2021/11/21 09:08:13;;;;;;;27.77;23.05;;;;;;;12.83;55.59;100343.78;5047367;28;20031;-22
2021/11/21 09:10:38;;;;;;;19.38;14.40;;;;;;;12.89;54.69;100335.88;5047967;28;20017;-21
2021/11/21 09:13:04;;;;;;;21.05;17.17;;;;;;;13.31;54.72;100330.56;5048085;28;20037;-21
2021/11/21 09:15:30;;;;;;;17.42;12.30;;;;;;;12.82;54.56;100323.41;5047920;28;20060;-22
2021/11/21 09:17:55;;;;;;;17.98;12.98;;;;;;;12.90;55.12;100326.81;5048694;28;20147;-21
2021/11/21 09:20:23;;;;;;;20.85;13.68;;;;;;;13.35;54.26;100310.28;5033182;28;20044;-22
2021/11/21 09:22:49;;;;;;;18.58;12.85;;;;;;;13.84;52.57;100316.25;5051984;28;20056;-21
2021/11/21 09:25:14;;;;;;;15.90;12.48;;;;;;;14.24;50.94;100307.44;5051598;28;20043;-20
2021/11/21 09:27:40;;;;;;;20.17;13.50;;;;;;;13.88;51.37;100305.88;5051921;28;20672;-21
2021/11/21 09:30:06;;;;;;;17.88;12.20;;;;;;;13.57;52.39;100300.66;5051529;28;20033;-22
2021/11/21 09:32:32;;;;;;;20.77;14.38;;;;;;;14.08;52.42;100287.56;5051366;28;20028;-22
2021/11/21 09:34:57;;;;;;;19.83;13.50;;;;;;;14.03;53.61;100290.91;5033856;28;20052;-21
2021/11/21 09:37:23;;;;;;;18.40;12.30;;;;;;;13.71;53.19;100287.00;5051947;28;20359;-21
2021/11/21 09:39:48;;;;;;;16.48;12.07;;;;;;;13.55;53.55;100278.63;5051910;28;20029;-21
2021/11/21 09:42:14;;;;;;;22.08;15.13;;;;;;;13.81;53.36;100277.34;5051436;28;20082;-21
2021/11/21 09:44:40;;;;;;;20.80;13.93;;;;;;;13.68;52.20;100255.31;5051485;28;20033;-21
2021/11/21 09:47:05;;;;;;;17.13;11.98;;;;;;;13.89;52.22;100267.28;5051248;28;20382;-21
2021/11/21 09:49:31;;;;;;;15.07;11.80;;;;;;;13.98;51.80;100247.13;5033501;28;20032;-21
2021/11/21 09:51:56;;;;;;;18.00;12.63;;;;;;;14.20;51.89;100255.31;5051416;28;20029;-22
2021/11/21 09:54:26;;;;;;;80.22;54.10;;;;;;;14.79;51.40;100252.41;5050879;28;20031;-21
2021/11/21 09:56:51;;;;;;;20.33;14.93;;;;;;;14.99;49.36;100243.91;5051143;28;20029;-22
2021/11/21 09:59:53;;;;;;;17.27;10.23;;;;;;;14.77;51.43;100241.94;5050954;28;20041;-21
2021/11/21 10:02:24;;;;;;;14.70;10.40;;;;;;;14.76;49.57;100221.50;5050776;28;20021;-21
2021/11/21 10:04:49;;;;;;;18.25;11.77;;;;;;;15.07;48.72;100227.38;5050990;28;20087;-21
2021/11/21 10:07:23;;;;;;;19.10;12.80;;;;;;;15.13;49.85;100212.16;5050779;28;20036;-21
2021/11/21 10:09:49;;;;;;;16.90;12.30;;;;;;;15.33;50.64;100214.34;5050823;28;20136;-21
2021/11/21 10:12:15;;;;;;;12.98;9.38;;;;;;;15.54;48.55;100202.00;5050533;28;20124;-20
2021/11/21 10:15:00;;;;;;;16.92;10.15;;;;;;;16.11;48.06;100207.03;5050729;28;20049;-21
2021/11/21 10:17:27;;;;;;;15.40;9.38;;;;;;;15.91;47.39;100202.22;5050627;28;20060;-21
2021/11/21 10:20:16;;;;;;;12.63;9.20;;;;;;;15.32;48.62;100188.53;5050624;28;20036;-21
2021/11/21 10:23:04;;;;;;;13.38;9.02;;;;;;;16.13;45.82;100196.03;5050668;28;20060;-20
2021/11/21 10:25:32;;;;;;;14.05;9.27;;;;;;;15.24;48.46;100192.44;5050598;28;20054;-21
2021/11/21 10:28:18;;;;;;;12.65;9.20;;;;;;;15.53;47.25;100190.44;5050657;28;20094;-21
2021/11/21 10:31:09;;;;;;;13.20;9.20;;;;;;;15.68;46.22;100187.94;5048924;28;20060;-21
2021/11/21 10:33:45;;;;;;;11.88;8.60;;;;;;;15.92;45.84;100182.34;5050848;28;20021;-21
2021/11/21 10:36:26;;;;;;;13.07;9.25;;;;;;;16.73;44.27;100184.22;5050092;28;20049;-21
2021/11/21 10:39:02;;;;;;;12.90;9.43;;;;;;;16.98;43.57;100167.47;5050660;28;20032;-21
2021/11/21 10:41:29;;;;;;;11.07;8.50;;;;;;;17.29;43.30;100166.88;5050358;28;20071;-21
2021/11/21 10:44:02;;;;;;;13.13;10.47;;;;;;;17.24;43.42;100171.16;5050452;28;20020;-22
2021/11/21 10:46:42;;;;;;;13.57;9.73;;;;;;;17.58;42.42;100162.69;5050048;28;21090;-21
2021/11/21 10:49:12;;;;;;;12.85;9.77;;;;;;;17.49;41.97;100142.72;5050377;28;20473;-21
2021/11/21 10:51:37;;;;;;;13.43;9.98;;;;;;;17.71;42.78;100147.09;5050382;28;20029;-22
2021/11/21 10:54:03;;;;;;;13.73;9.40;;;;;;;17.95;41.49;100140.19;5050772;28;20029;-21
2021/11/21 10:56:30;;;;;;;14.73;9.50;;;;;;;17.88;41.83;100158.53;5049752;28;20086;-21
2021/11/21 10:58:55;;;;;;;15.30;9.57;;;;;;;18.54;40.01;100155.13;5050132;28;20029;-20
2021/11/21 11:01:23;;;;;;;17.63;11.57;;;;;;;18.99;39.29;100141.91;5049752;28;20025;-21
2021/11/21 11:04:11;;;;;;;15.18;11.27;;;;;;;19.59;37.69;100131.97;5050312;28;20132;-21
2021/11/21 11:06:37;;;;;;;16.95;11.88;;;;;;;19.48;38.07;100135.81;5050357;28;20039;-21
2021/11/21 11:09:20;;;;;;;15.55;11.02;;;;;;;18.96;38.61;100142.44;5049801;28;20080;-20
2021/11/21 11:11:46;;;;;;;18.20;11.18;;;;;;;19.65;37.90;100128.16;5049867;28;20025;-20
2021/11/21 11:14:18;;;;;;;15.60;11.00;;;;;;;19.87;37.09;100130.53;5049179;28;20053;-22